Franklin, New York
Current Conditions -  °F | °C
As of 8:53 AM on Saturday 25 Oct 2014 (Local Time) from KBGM Reporting Station
Overcast Overcast  
Wind Chill: 40°   Ceiling: 4500
Heat Index: 44°   Visibility: 10mi
Dew Point: 36°   Wind: 8mph
Humidity: 73%   Direction: 240°WSW
Pressure: 29.85"   Gusts: NA
Location:  42.34°N, 75.17°W
Report Text: KBGM 251253Z 24007KT 10SM OVC045 07/02 A2985 RMK AO2 SLP113 T00670022
Loading
Personal Weather Stations






























Interactive Weather Map
Tropical Storm Tracking
New forecast layout! Learn more

10-Day Weather Forecast

Advertisements
Track Severe Weather on mobile